Carolina, PR (00979)

6:19 PM AST on April 29, 2017 (GMT -0400)
Isla Verde Atlantic View Calle Uranio | | Change Station

Elev 0 ft 18.45 °N, 66.04 °W | Updated 1 second ago

Overcast
Overcast
79.0 °F
Feels Like 82 °F
N
7.0
Wind Variable Wind from ENE
Gusts 7.0 mph

Today
High -- | Low -- °F
--% Chance of Precip.
Yesterday
High -- | Low -- °F
Precip. -- in
Pressure 30.03 in
Visibility 10.0 miles
Clouds Mostly Cloudy 2200 ft
Mostly Cloudy 5000 ft
Overcast 9000 ft
Heat Index 82 °F
Dew Point 73 °F
Humidity 83%
Rainfall 0.87 in
Snow Depth Not available.
5:57 AM 6:45 PM
Waxing Crescent, 17% visible
METAR TJSJ 292156Z 08009KT 10SM BKN022 BKN050 OVC090 26/24 A3003 RMK AO2 RAE37 SLP167 VCSH S P0000 T02610244
Pressure 30.03 in
Visibility 10.0 miles
Clouds Mostly Cloudy 2200 ft
Mostly Cloudy 5000 ft
Overcast 9000 ft
Heat Index 82 °F
Dew Point 73 °F
Humidity 83%
Rainfall 0.87 in
Snow Depth Not available.
5:57 AM 6:45 PM
Waxing Crescent, 17% visible
METAR TJSJ 292156Z 08009KT 10SM BKN022 BKN050 OVC090 26/24 A3003 RMK AO2 RAE37 SLP167 VCSH S P0000 T02610244

Get Severe Weather Alerts

Thanks for signing up!

Be on the lookout for a verification email in your inbox.

You'll start receiving the daily forecast at 8 AM.

×

10-Day Weather Forecast

Almanac

Astronomy

Apr. 29, 2017 Rise Set
Actual Time
Civil Twilight
Nautical Twilight
Astronomical Twilight
Moon
Length of Visible Light
Length of Day
Tomorrow will be .
, % of the Moon is Illuminated

Today's Extremes

State Highs State Lows

Community

WunderPhotos

WunderBlog® & News

Nearby

Air Quality

  Air Quality AQ Index Pollutant
Not available.

Snow Depth

Station Depth Elevation

Earthquake Activity

City Distance Mag. Time & Date
Minimum magnitude displayed is 2.5.

Coastal Water Temperatures

Place Temperature

Stations

Nearby Weather Stations

Station Location Temp. Windchill Dew Point Humidity Wind Precip. Elev Updated Type
                   

Watches & Warnings

There are currently no watches in effect.